sensor_id;sensor_type;location;lat;lon;timestamp;P1;durP1;ratioP1;P2;durP2;ratioP2
17228;SDS011;8731;50.364;8.958;2024-03-08T00:03:19;25.13;;;16.57;;
17228;SDS011;8731;50.364;8.958;2024-03-08T00:07:41;21.60;;;14.60;;
17228;SDS011;8731;50.364;8.958;2024-03-08T00:12:04;20.40;;;15.67;;
17228;SDS011;8731;50.364;8.958;2024-03-08T00:16:26;21.70;;;14.70;;
17228;SDS011;8731;50.364;8.958;2024-03-08T00:20:50;20.53;;;15.60;;
17228;SDS011;8731;50.364;8.958;2024-03-08T00:25:12;21.57;;;15.57;;
17228;SDS011;8731;50.364;8.958;2024-03-08T00:29:35;20.40;;;15.57;;
17228;SDS011;8731;50.364;8.958;2024-03-08T00:33:58;20.33;;;16.07;;
17228;SDS011;8731;50.364;8.958;2024-03-08T00:38:22;21.33;;;15.77;;
17228;SDS011;8731;50.364;8.958;2024-03-08T05:24:17;28.10;;;18.60;;
17228;SDS011;8731;50.364;8.958;2024-03-08T05:28:40;26.73;;;19.33;;
17228;SDS011;8731;50.364;8.958;2024-03-08T05:33:02;28.63;;;19.53;;
17228;SDS011;8731;50.364;8.958;2024-03-08T05:37:25;29.33;;;19.03;;
17228;SDS011;8731;50.364;8.958;2024-03-08T05:41:49;27.97;;;20.97;;
17228;SDS011;8731;50.364;8.958;2024-03-08T05:46:15;27.37;;;20.10;;
17228;SDS011;8731;50.364;8.958;2024-03-08T05:50:39;25.07;;;18.53;;
17228;SDS011;8731;50.364;8.958;2024-03-08T05:55:03;26.80;;;18.53;;
17228;SDS011;8731;50.364;8.958;2024-03-08T05:59:29;29.70;;;19.60;;
17228;SDS011;8731;50.364;8.958;2024-03-08T06:03:51;29.57;;;19.90;;
17228;SDS011;8731;50.364;8.958;2024-03-08T06:08:15;28.43;;;20.60;;
17228;SDS011;8731;50.364;8.958;2024-03-08T06:23:16;36.43;;;20.67;;
17228;SDS011;8731;50.364;8.958;2024-03-08T06:27:39;28.47;;;20.13;;
17228;SDS011;8731;50.364;8.958;2024-03-08T06:32:02;27.63;;;19.07;;
17228;SDS011;8731;50.364;8.958;2024-03-08T06:36:25;30.50;;;20.83;;
17228;SDS011;8731;50.364;8.958;2024-03-08T06:40:49;28.30;;;20.00;;
17228;SDS011;8731;50.364;8.958;2024-03-08T06:45:12;29.90;;;20.80;;
17228;SDS011;8731;50.364;8.958;2024-03-08T06:49:39;29.30;;;20.30;;
17228;SDS011;8731;50.364;8.958;2024-03-08T06:54:01;31.63;;;23.03;;
17228;SDS011;8731;50.364;8.958;2024-03-08T06:58:30;24.90;;;18.10;;
17228;SDS011;8731;50.364;8.958;2024-03-08T07:02:54;26.20;;;18.87;;
17228;SDS011;8731;50.364;8.958;2024-03-08T07:07:17;24.93;;;18.37;;
17228;SDS011;8731;50.364;8.958;2024-03-08T07:11:41;23.80;;;18.50;;
17228;SDS011;8731;50.364;8.958;2024-03-08T07:16:08;25.57;;;19.60;;
17228;SDS011;8731;50.364;8.958;2024-03-08T07:20:32;22.47;;;16.83;;
17228;SDS011;8731;50.364;8.958;2024-03-08T07:24:54;22.77;;;18.63;;
17228;SDS011;8731;50.364;8.958;2024-03-08T07:29:37;23.63;;;16.80;;
17228;SDS011;8731;50.364;8.958;2024-03-08T07:34:01;22.83;;;17.50;;
17228;SDS011;8731;50.364;8.958;2024-03-08T07:38:27;21.80;;;19.37;;
17228;SDS011;8731;50.364;8.958;2024-03-08T07:42:49;22.90;;;18.03;;
17228;SDS011;8731;50.364;8.958;2024-03-08T07:47:12;22.07;;;17.40;;
17228;SDS011;8731;50.364;8.958;2024-03-08T07:51:36;22.13;;;17.70;;
17228;SDS011;8731;50.364;8.958;2024-03-08T07:55:58;19.83;;;16.50;;
17228;SDS011;8731;50.364;8.958;2024-03-08T08:00:22;18.40;;;16.47;;
17228;SDS011;8731;50.364;8.958;2024-03-08T08:04:47;20.47;;;16.83;;
17228;SDS011;8731;50.364;8.958;2024-03-08T08:09:11;20.20;;;17.57;;
17228;SDS011;8731;50.364;8.958;2024-03-08T08:13:35;19.57;;;17.17;;
17228;SDS011;8731;50.364;8.958;2024-03-08T08:17:57;17.63;;;15.73;;
17228;SDS011;8731;50.364;8.958;2024-03-08T08:22:20;18.70;;;16.70;;
17228;SDS011;8731;50.364;8.958;2024-03-08T08:26:44;19.87;;;15.90;;
17228;SDS011;8731;50.364;8.958;2024-03-08T08:31:06;18.10;;;16.30;;
17228;SDS011;8731;50.364;8.958;2024-03-08T08:35:28;18.77;;;16.77;;
17228;SDS011;8731;50.364;8.958;2024-03-08T08:39:50;19.30;;;15.70;;
17228;SDS011;8731;50.364;8.958;2024-03-08T08:44:14;17.67;;;15.77;;
17228;SDS011;8731;50.364;8.958;2024-03-08T08:48:37;18.40;;;16.47;;
17228;SDS011;8731;50.364;8.958;2024-03-08T08:53:01;17.67;;;15.90;;
17228;SDS011;8731;50.364;8.958;2024-03-08T08:57:27;18.07;;;16.17;;
17228;SDS011;8731;50.364;8.958;2024-03-08T09:01:50;17.30;;;15.50;;
17228;SDS011;8731;50.364;8.958;2024-03-08T09:06:13;19.00;;;16.33;;
17228;SDS011;8731;50.364;8.958;2024-03-08T09:10:36;17.47;;;15.70;;
17228;SDS011;8731;50.364;8.958;2024-03-08T09:14:59;16.30;;;14.60;;
17228;SDS011;8731;50.364;8.958;2024-03-08T09:19:24;17.43;;;14.00;;
17228;SDS011;8731;50.364;8.958;2024-03-08T09:23:46;15.10;;;13.57;;
17228;SDS011;8731;50.364;8.958;2024-03-08T09:28:09;15.43;;;13.17;;
17228;SDS011;8731;50.364;8.958;2024-03-08T09:32:32;14.90;;;13.07;;
17228;SDS011;8731;50.364;8.958;2024-03-08T09:36:56;14.20;;;12.80;;
17228;SDS011;8731;50.364;8.958;2024-03-08T09:41:18;14.20;;;12.70;;
17228;SDS011;8731;50.364;8.958;2024-03-08T09:45:41;14.63;;;12.70;;
17228;SDS011;8731;50.364;8.958;2024-03-08T09:50:07;13.80;;;12.40;;
17228;SDS011;8731;50.364;8.958;2024-03-08T09:54:34;14.63;;;12.43;;
17228;SDS011;8731;50.364;8.958;2024-03-08T09:58:57;13.10;;;11.73;;
17228;SDS011;8731;50.364;8.958;2024-03-08T10:03:41;12.57;;;11.37;;
17228;SDS011;8731;50.364;8.958;2024-03-08T10:08:04;10.70;;;9.60;;
17228;SDS011;8731;50.364;8.958;2024-03-08T10:12:28;12.13;;;10.70;;
17228;SDS011;8731;50.364;8.958;2024-03-08T10:16:51;14.83;;;10.07;;
17228;SDS011;8731;50.364;8.958;2024-03-08T10:21:14;11.80;;;10.60;;
17228;SDS011;8731;50.364;8.958;2024-03-08T10:25:37;11.40;;;10.20;;
17228;SDS011;8731;50.364;8.958;2024-03-08T10:30:01;12.07;;;10.87;;
17228;SDS011;8731;50.364;8.958;2024-03-08T10:34:25;14.07;;;12.00;;
17228;SDS011;8731;50.364;8.958;2024-03-08T10:38:50;11.90;;;10.70;;
17228;SDS011;8731;50.364;8.958;2024-03-08T10:43:16;13.43;;;10.47;;
17228;SDS011;8731;50.364;8.958;2024-03-08T10:47:49;12.77;;;11.33;;
17228;SDS011;8731;50.364;8.958;2024-03-08T10:52:21;11.70;;;10.60;;
17228;SDS011;8731;50.364;8.958;2024-03-08T10:56:44;13.17;;;11.70;;
17228;SDS011;8731;50.364;8.958;2024-03-08T11:01:10;12.40;;;11.30;;
17228;SDS011;8731;50.364;8.958;2024-03-08T11:05:37;13.57;;;11.20;;
17228;SDS011;8731;50.364;8.958;2024-03-08T11:10:03;12.40;;;11.13;;
17228;SDS011;8731;50.364;8.958;2024-03-08T11:14:43;12.43;;;11.13;;
17228;SDS011;8731;50.364;8.958;2024-03-08T11:19:24;11.80;;;10.60;;
17228;SDS011;8731;50.364;8.958;2024-03-08T11:24:00;14.53;;;10.63;;
17228;SDS011;8731;50.364;8.958;2024-03-08T11:28:23;13.13;;;11.83;;
17228;SDS011;8731;50.364;8.958;2024-03-08T11:32:47;11.87;;;10.67;;
17228;SDS011;8731;50.364;8.958;2024-03-08T11:37:12;12.97;;;11.60;;
17228;SDS011;8731;50.364;8.958;2024-03-08T11:41:39;11.73;;;10.63;;
17228;SDS011;8731;50.364;8.958;2024-03-08T11:46:07;11.77;;;10.67;;
17228;SDS011;8731;50.364;8.958;2024-03-08T11:50:30;12.63;;;11.33;;
17228;SDS011;8731;50.364;8.958;2024-03-08T11:54:54;12.10;;;10.93;;
17228;SDS011;8731;50.364;8.958;2024-03-08T11:59:19;12.60;;;11.40;;
17228;SDS011;8731;50.364;8.958;2024-03-08T12:03:42;12.03;;;10.83;;
17228;SDS011;8731;50.364;8.958;2024-03-08T12:08:05;10.93;;;9.80;;
17228;SDS011;8731;50.364;8.958;2024-03-08T12:12:32;11.67;;;10.57;;
17228;SDS011;8731;50.364;8.958;2024-03-08T12:16:56;11.67;;;10.53;;
17228;SDS011;8731;50.364;8.958;2024-03-08T12:21:21;11.67;;;10.50;;
17228;SDS011;8731;50.364;8.958;2024-03-08T12:25:46;12.13;;;10.83;;
17228;SDS011;8731;50.364;8.958;2024-03-08T12:30:17;11.67;;;10.57;;
17228;SDS011;8731;50.364;8.958;2024-03-08T12:34:43;11.53;;;9.83;;
17228;SDS011;8731;50.364;8.958;2024-03-08T12:39:15;11.47;;;10.27;;
17228;SDS011;8731;50.364;8.958;2024-03-08T12:43:42;11.30;;;10.20;;
17228;SDS011;8731;50.364;8.958;2024-03-08T12:48:12;11.83;;;10.63;;
17228;SDS011;8731;50.364;8.958;2024-03-08T12:52:37;12.40;;;11.20;;
17228;SDS011;8731;50.364;8.958;2024-03-08T12:56:59;12.70;;;11.40;;
17228;SDS011;8731;50.364;8.958;2024-03-08T13:01:26;12.90;;;11.60;;
17228;SDS011;8731;50.364;8.958;2024-03-08T13:05:48;13.67;;;12.27;;
17228;SDS011;8731;50.364;8.958;2024-03-08T13:10:14;13.43;;;12.10;;
17228;SDS011;8731;50.364;8.958;2024-03-08T13:14:40;12.90;;;11.60;;
17228;SDS011;8731;50.364;8.958;2024-03-08T13:19:02;16.60;;;12.00;;
17228;SDS011;8731;50.364;8.958;2024-03-08T13:23:25;14.03;;;12.63;;
17228;SDS011;8731;50.364;8.958;2024-03-08T13:27:49;13.27;;;11.90;;
17228;SDS011;8731;50.364;8.958;2024-03-08T13:32:11;14.40;;;12.83;;
17228;SDS011;8731;50.364;8.958;2024-03-08T13:36:33;14.47;;;12.20;;
17228;SDS011;8731;50.364;8.958;2024-03-08T13:41:02;15.97;;;11.67;;
17228;SDS011;8731;50.364;8.958;2024-03-08T13:45:26;13.73;;;12.10;;
17228;SDS011;8731;50.364;8.958;2024-03-08T13:49:49;13.23;;;11.83;;
17228;SDS011;8731;50.364;8.958;2024-03-08T13:54:12;15.73;;;13.63;;
17228;SDS011;8731;50.364;8.958;2024-03-08T13:58:36;15.67;;;13.40;;
17228;SDS011;8731;50.364;8.958;2024-03-08T14:03:01;15.50;;;13.23;;
17228;SDS011;8731;50.364;8.958;2024-03-08T14:07:25;16.33;;;12.80;;
17228;SDS011;8731;50.364;8.958;2024-03-08T14:11:51;14.87;;;12.63;;
17228;SDS011;8731;50.364;8.958;2024-03-08T14:16:15;14.70;;;12.00;;
17228;SDS011;8731;50.364;8.958;2024-03-08T14:20:38;13.63;;;11.77;;
17228;SDS011;8731;50.364;8.958;2024-03-08T14:25:02;12.93;;;10.77;;
17228;SDS011;8731;50.364;8.958;2024-03-08T14:29:25;14.57;;;12.03;;
17228;SDS011;8731;50.364;8.958;2024-03-08T14:33:50;15.30;;;11.90;;
17228;SDS011;8731;50.364;8.958;2024-03-08T14:38:14;13.77;;;11.23;;
17228;SDS011;8731;50.364;8.958;2024-03-08T14:42:37;15.77;;;11.70;;
17228;SDS011;8731;50.364;8.958;2024-03-08T14:47:04;14.03;;;10.60;;
17228;SDS011;8731;50.364;8.958;2024-03-08T14:51:27;13.17;;;11.60;;
17228;SDS011;8731;50.364;8.958;2024-03-08T14:55:51;13.13;;;10.50;;
17228;SDS011;8731;50.364;8.958;2024-03-08T15:00:13;15.77;;;10.37;;
17228;SDS011;8731;50.364;8.958;2024-03-08T15:04:46;15.33;;;11.13;;
17228;SDS011;8731;50.364;8.958;2024-03-08T15:09:16;14.10;;;10.27;;
17228;SDS011;8731;50.364;8.958;2024-03-08T15:13:41;12.80;;;10.20;;
17228;SDS011;8731;50.364;8.958;2024-03-08T15:18:05;10.93;;;9.83;;
17228;SDS011;8731;50.364;8.958;2024-03-08T15:22:28;12.10;;;10.13;;
17228;SDS011;8731;50.364;8.958;2024-03-08T15:26:50;12.30;;;9.77;;
17228;SDS011;8731;50.364;8.958;2024-03-08T15:31:17;13.03;;;10.07;;
17228;SDS011;8731;50.364;8.958;2024-03-08T15:35:41;12.87;;;9.70;;
17228;SDS011;8731;50.364;8.958;2024-03-08T15:40:09;14.07;;;10.07;;
17228;SDS011;8731;50.364;8.958;2024-03-08T15:44:40;12.83;;;10.00;;
17228;SDS011;8731;50.364;8.958;2024-03-08T15:49:05;12.33;;;9.53;;
17228;SDS011;8731;50.364;8.958;2024-03-08T15:53:28;13.07;;;10.30;;
17228;SDS011;8731;50.364;8.958;2024-03-08T15:57:51;13.93;;;10.03;;
17228;SDS011;8731;50.364;8.958;2024-03-08T16:02:15;11.60;;;9.50;;
17228;SDS011;8731;50.364;8.958;2024-03-08T16:06:40;14.10;;;11.20;;
17228;SDS011;8731;50.364;8.958;2024-03-08T16:11:05;12.57;;;10.10;;
17228;SDS011;8731;50.364;8.958;2024-03-08T16:15:27;14.33;;;10.50;;
17228;SDS011;8731;50.364;8.958;2024-03-08T16:19:50;12.57;;;10.57;;
17228;SDS011;8731;50.364;8.958;2024-03-08T16:24:17;14.00;;;10.23;;
17228;SDS011;8731;50.364;8.958;2024-03-08T16:28:40;14.20;;;11.33;;
17228;SDS011;8731;50.364;8.958;2024-03-08T16:33:04;16.43;;;12.13;;
17228;SDS011;8731;50.364;8.958;2024-03-08T16:37:26;15.77;;;11.80;;
17228;SDS011;8731;50.364;8.958;2024-03-08T16:41:51;16.90;;;12.20;;
17228;SDS011;8731;50.364;8.958;2024-03-08T16:46:14;14.90;;;11.47;;
17228;SDS011;8731;50.364;8.958;2024-03-08T16:50:36;14.93;;;11.67;;
17228;SDS011;8731;50.364;8.958;2024-03-08T16:55:02;13.07;;;11.33;;
17228;SDS011;8731;50.364;8.958;2024-03-08T16:59:27;16.60;;;11.63;;
17228;SDS011;8731;50.364;8.958;2024-03-08T17:03:52;14.70;;;11.23;;
17228;SDS011;8731;50.364;8.958;2024-03-08T17:08:15;14.07;;;11.30;;
17228;SDS011;8731;50.364;8.958;2024-03-08T17:12:38;16.00;;;11.80;;
17228;SDS011;8731;50.364;8.958;2024-03-08T17:17:02;16.57;;;12.90;;
17228;SDS011;8731;50.364;8.958;2024-03-08T17:21:25;17.47;;;12.20;;
17228;SDS011;8731;50.364;8.958;2024-03-08T17:25:48;16.33;;;10.80;;
17228;SDS011;8731;50.364;8.958;2024-03-08T17:30:13;17.20;;;11.23;;
17228;SDS011;8731;50.364;8.958;2024-03-08T17:34:43;17.80;;;11.60;;
17228;SDS011;8731;50.364;8.958;2024-03-08T17:39:06;17.60;;;11.00;;
17228;SDS011;8731;50.364;8.958;2024-03-08T17:43:37;13.03;;;9.97;;
17228;SDS011;8731;50.364;8.958;2024-03-08T17:48:01;14.53;;;11.60;;
17228;SDS011;8731;50.364;8.958;2024-03-08T17:52:26;14.93;;;10.60;;
17228;SDS011;8731;50.364;8.958;2024-03-08T17:56:50;15.27;;;11.30;;
17228;SDS011;8731;50.364;8.958;2024-03-08T18:01:15;14.93;;;10.40;;
17228;SDS011;8731;50.364;8.958;2024-03-08T18:05:38;14.77;;;10.13;;
17228;SDS011;8731;50.364;8.958;2024-03-08T18:10:05;13.17;;;10.10;;
17228;SDS011;8731;50.364;8.958;2024-03-08T18:14:28;12.50;;;10.00;;
17228;SDS011;8731;50.364;8.958;2024-03-08T18:18:52;14.13;;;9.87;;
17228;SDS011;8731;50.364;8.958;2024-03-08T18:23:15;14.03;;;10.53;;
